Main page
METAR-TAF:

METAR-TAF

Airports :

Leonardo da Vinci–Fiumicino Airport

Rome-Fiumicino, Italy

latitude: 41-48N, longitude: 012-14E, elevation: 2 m

Current weather observation

The report was made 40 minutes ago, at 06:20 UTC
Wind 8 kt from the Northeast, varying between North/Northeast and East
Temperature 26°C
Humidity 51%
Pressure 1016 hPa
Visibility 10 km or more
no clouds below 1500 m and no cumulonimbus

METAR: LIRF 190620Z 04008KT 020V080 CAVOK 26/15 Q1016 NOSIG

Time: 09:00 (07:00 UTC)

Forecast

The report was made 2 hours and 0 minutes ago, at 05:00 UTC
Forecast valid from 19 at 06 UTC to 20 at 12 UTC
Wind 10 kt from the North/Northeast
Visibility 10 km or more
no clouds below 1500 m and no cumulonimbus
Becoming
from 19 at 08 UTC to 19 at 11 UTC
Wind 12 kt from the West/Northwest
Becoming
from 19 at 19 UTC to 19 at 21 UTC
Wind 10 kt from the Northeast

TAF: LIRF 190500Z 1906/2012 03010KT CAVOK BECMG 1908/1911 29012KT BECMG 1919/1921 04010KT

Weather observations and forecasts of more than 4000 airports (METAR and TAF reports).

The available stations are represented by yellow and red dots on the map.

Hover mouse over dot to see the name of the station.

Then click to see weather observations and forecasts.

To change the map : click on the green buttons with a black cross to zoom in, on the green button with a dash to zoom out, or on the green arrows for adjacent maps.


METAR-TAF: